Time;durP1;ratioP1;P1;durP2;ratioP2;P2;SDS_P1;SDS_P2;PMS_P1;PMS_P2;Temp;Humidity;BMP_temperature;BMP_pressure;BME280_temperature;BME280_humidity;BME280_pressure;Samples;Min_cycle;Max_cycle;Signal;HPM_P1;HPM_P2
2023/04/25 00:00:37;;;;;;;21.30;8.95;;;;;;;4.77;100.00;100978.06;5093257;28;20045;-57
2023/04/25 00:03:05;;;;;;;26.20;9.05;;;;;;;4.69;100.00;100997.19;5093992;28;20073;-58
2023/04/25 00:05:31;;;;;;;30.20;8.73;;;;;;;4.60;100.00;101000.97;5093434;28;20049;-58
2023/04/25 00:07:57;;;;;;;23.55;8.63;;;;;;;4.57;100.00;100998.25;5093728;28;20032;-57
2023/04/25 00:10:22;;;;;;;26.35;9.38;;;;;;;4.49;100.00;100994.38;5093836;28;20038;-58
2023/04/25 00:12:48;;;;;;;27.48;9.05;;;;;;;4.44;100.00;100993.25;5093849;28;20032;-58
2023/04/25 00:15:14;;;;;;;29.17;9.50;;;;;;;4.40;100.00;100997.31;5093450;28;20476;-57
2023/04/25 00:17:39;;;;;;;29.73;10.02;;;;;;;4.39;100.00;101002.31;5093555;28;20108;-58
2023/04/25 00:20:06;;;;;;;23.17;8.80;;;;;;;4.33;100.00;101005.41;5093762;28;20031;-57
2023/04/25 00:22:33;;;;;;;31.57;9.20;;;;;;;4.28;100.00;101007.66;5093249;28;20028;-57
2023/04/25 00:25:00;;;;;;;25.40;8.88;;;;;;;4.25;100.00;101014.28;5093919;28;20027;-57
2023/04/25 00:27:26;;;;;;;25.02;8.48;;;;;;;4.20;100.00;101013.16;5093274;28;20024;-57
2023/04/25 00:29:51;;;;;;;30.05;9.07;;;;;;;4.18;100.00;101015.59;5093076;28;20035;-57
2023/04/25 00:32:16;;;;;;;29.60;8.82;;;;;;;4.17;100.00;101018.94;5093241;28;20067;-58
2023/04/25 00:34:41;;;;;;;27.52;8.27;;;;;;;4.10;100.00;101009.16;5093606;28;20032;-57
2023/04/25 00:37:07;;;;;;;22.75;8.38;;;;;;;4.04;100.00;101011.34;5093227;28;20016;-58
2023/04/25 00:39:32;;;;;;;28.70;8.20;;;;;;;4.00;100.00;101006.88;5093392;28;20027;-58
2023/04/25 00:41:57;;;;;;;29.23;8.73;;;;;;;4.00;100.00;101004.31;5093275;28;20388;-57
2023/04/25 00:44:24;;;;;;;25.63;8.93;;;;;;;3.95;100.00;101006.59;5092565;28;20016;-58
2023/04/25 00:46:50;;;;;;;29.73;9.27;;;;;;;3.95;100.00;101004.94;5093152;28;20033;-57
2023/04/25 00:49:16;;;;;;;29.60;9.15;;;;;;;3.98;100.00;101008.44;5093298;28;20079;-58
2023/04/25 00:51:43;;;;;;;28.52;9.13;;;;;;;3.94;100.00;101003.16;5092928;28;20024;-57
2023/04/25 00:54:10;;;;;;;35.08;9.55;;;;;;;3.96;100.00;101013.44;5093312;28;20024;-58
2023/04/25 00:56:35;;;;;;;30.83;9.18;;;;;;;3.90;100.00;101008.88;5092253;28;20051;-58
2023/04/25 00:59:00;;;;;;;30.05;9.43;;;;;;;3.85;100.00;101011.94;5092614;28;20368;-57
2023/04/25 01:01:26;;;;;;;30.35;9.93;;;;;;;3.81;100.00;101008.34;5092476;28;20031;-58
2023/04/25 01:03:53;;;;;;;38.97;10.70;;;;;;;3.78;100.00;101013.25;5092549;28;20047;-58
2023/04/25 01:06:19;;;;;;;29.45;9.80;;;;;;;3.74;100.00;101009.63;5092998;28;20508;-58
2023/04/25 01:08:45;;;;;;;31.55;9.80;;;;;;;3.77;100.00;101006.38;5092659;28;20024;-57
2023/04/25 01:11:10;;;;;;;29.83;10.15;;;;;;;3.75;100.00;101008.84;5092648;28;20107;-58
2023/04/25 01:13:35;;;;;;;34.20;10.07;;;;;;;3.74;100.00;101006.22;5092825;28;20020;-57
2023/04/25 01:16:02;;;;;;;30.48;10.27;;;;;;;3.76;100.00;101014.84;5092814;28;20395;-58
2023/04/25 01:18:27;;;;;;;28.58;9.45;;;;;;;3.69;100.00;101005.06;5092292;28;20081;-58
2023/04/25 01:20:53;;;;;;;27.85;10.18;;;;;;;3.69;100.00;101020.34;5093018;28;20024;-58
2023/04/25 01:23:22;;;;;;;33.75;10.93;;;;;;;3.69;100.00;101020.34;5092425;28;20056;-58
2023/04/25 01:25:50;;;;;;;28.67;10.23;;;;;;;3.73;100.00;101022.28;5092457;28;20028;-58
2023/04/25 01:28:16;;;;;;;33.08;10.95;;;;;;;3.79;100.00;101020.97;5092798;28;20051;-58
2023/04/25 01:30:42;;;;;;;30.13;11.07;;;;;;;3.85;100.00;101024.69;5092453;28;20060;-58
2023/04/25 01:33:08;;;;;;;35.67;10.98;;;;;;;3.91;100.00;101030.16;5092380;28;20114;-58
2023/04/25 01:35:34;;;;;;;33.90;10.75;;;;;;;3.94;100.00;101026.13;5092659;28;20052;-58
2023/04/25 01:37:59;;;;;;;30.08;10.32;;;;;;;3.98;100.00;101027.19;5092682;28;20062;-57
2023/04/25 01:40:27;;;;;;;38.50;10.05;;;;;;;4.00;100.00;101020.50;5091909;28;20519;-58
2023/04/25 01:42:52;;;;;;;35.47;10.93;;;;;;;4.02;100.00;101030.81;5092792;28;20031;-57
2023/04/25 01:45:18;;;;;;;28.58;10.02;;;;;;;4.05;100.00;101028.44;5092246;28;20020;-58
2023/04/25 01:47:48;;;;;;;31.73;10.65;;;;;;;4.05;100.00;101024.19;5092530;28;20472;-58
2023/04/25 01:50:14;;;;;;;32.10;11.35;;;;;;;4.06;100.00;101031.06;5092590;28;20023;-58
2023/04/25 01:52:39;;;;;;;37.65;10.35;;;;;;;4.07;100.00;101026.84;5091903;28;20024;-58
2023/04/25 01:55:05;;;;;;;36.65;11.15;;;;;;;4.08;100.00;101033.69;5092750;28;20433;-58
2023/04/25 01:57:31;;;;;;;33.28;10.35;;;;;;;4.07;100.00;101029.41;5092073;28;20055;-58
2023/04/25 02:00:02;;;;;;;33.72;10.95;;;;;;;4.05;100.00;101033.53;5091877;28;20460;-58
2023/04/25 02:02:27;;;;;;;33.28;10.15;;;;;;;4.04;100.00;101032.66;5092496;28;20030;-58
2023/04/25 02:04:54;;;;;;;36.20;10.77;;;;;;;4.02;100.00;101035.91;5091996;28;20123;-58
2023/04/25 02:07:20;;;;;;;30.80;10.30;;;;;;;3.92;100.00;101030.22;5091685;28;20032;-58
2023/04/25 02:09:45;;;;;;;28.25;10.02;;;;;;;3.83;100.00;101037.34;5095111;28;20069;-58
2023/04/25 02:12:10;;;;;;;30.80;9.32;;;;;;;3.85;100.00;101040.88;5095993;28;20425;-57
2023/04/25 02:14:36;;;;;;;33.78;10.43;;;;;;;3.84;100.00;101048.44;5095626;28;20111;-58
2023/04/25 02:17:02;;;;;;;34.28;10.02;;;;;;;3.81;100.00;101049.13;5096211;28;20016;-58
2023/04/25 02:19:27;;;;;;;37.67;10.23;;;;;;;3.76;100.00;101048.84;5095881;28;20043;-58
2023/04/25 02:21:53;;;;;;;27.00;9.40;;;;;;;3.72;100.00;101043.47;5095687;28;20024;-57
2023/04/25 02:24:18;;;;;;;28.48;9.85;;;;;;;3.74;100.00;101054.63;5095825;28;20024;-58
2023/04/25 02:26:44;;;;;;;32.03;10.00;;;;;;;3.66;100.00;101048.22;5095846;28;20043;-58
2023/04/25 02:29:10;;;;;;;31.17;10.05;;;;;;;3.62;100.00;101048.00;5095356;28;20383;-57
2023/04/25 02:31:35;;;;;;;32.00;9.70;;;;;;;3.62;100.00;101047.13;5095544;28;20049;-58
2023/04/25 02:34:00;;;;;;;34.72;9.90;;;;;;;3.56;100.00;101047.63;5095776;28;20099;-58
2023/04/25 02:36:26;;;;;;;31.33;10.25;;;;;;;3.58;100.00;101051.16;5095027;28;20111;-58
2023/04/25 02:38:51;;;;;;;33.13;10.43;;;;;;;3.49;100.00;101055.69;5096279;28;20020;-58
2023/04/25 02:41:17;;;;;;;31.60;10.75;;;;;;;3.44;100.00;101057.09;5095178;28;20035;-58
2023/04/25 02:43:42;;;;;;;40.42;10.65;;;;;;;3.35;100.00;101056.53;5095110;28;20035;-58
2023/04/25 02:46:07;;;;;;;32.58;9.82;;;;;;;3.32;100.00;101051.22;5095638;28;20056;-58
2023/04/25 02:48:32;;;;;;;32.95;10.48;;;;;;;3.29;100.00;101052.81;5095619;28;20379;-58
2023/04/25 02:50:58;;;;;;;37.60;11.00;;;;;;;3.16;100.00;101060.44;5095227;28;20107;-58
2023/04/25 02:53:23;;;;;;;34.65;10.07;;;;;;;3.11;100.00;101054.19;5095229;28;20349;-58
2023/04/25 02:55:48;;;;;;;32.30;10.85;;;;;;;3.04;100.00;101054.59;5095529;28;20107;-58
2023/04/25 02:58:15;;;;;;;35.88;10.88;;;;;;;3.00;100.00;101055.19;5094778;28;20035;-58
2023/04/25 03:00:40;;;;;;;41.30;11.10;;;;;;;2.96;100.00;101051.56;5095362;28;20059;-58
2023/04/25 03:03:05;;;;;;;34.00;10.70;;;;;;;2.80;100.00;101057.31;5095000;28;20047;-58
2023/04/25 03:05:31;;;;;;;38.88;11.45;;;;;;;2.84;100.00;101060.94;5094930;28;20123;-58
2023/04/25 03:07:56;;;;;;;40.55;11.90;;;;;;;2.79;100.00;101053.91;5095207;28;20031;-58
2023/04/25 03:10:21;;;;;;;35.25;11.30;;;;;;;2.77;100.00;101060.56;5094311;28;20023;-58
2023/04/25 03:12:46;;;;;;;37.92;12.15;;;;;;;2.64;100.00;101052.91;5095200;28;20149;-58
2023/04/25 03:15:12;;;;;;;40.55;11.90;;;;;;;2.62;100.00;101052.81;5094855;28;20024;-58
2023/04/25 03:17:37;;;;;;;31.90;11.55;;;;;;;2.64;100.00;101056.34;5094359;28;20028;-58
2023/04/25 03:20:03;;;;;;;32.75;11.52;;;;;;;2.56;100.00;101057.50;5094646;28;20016;-58
2023/04/25 03:22:29;;;;;;;35.72;12.13;;;;;;;2.56;100.00;101052.41;5094365;28;20465;-58
2023/04/25 03:24:54;;;;;;;38.83;12.57;;;;;;;2.62;100.00;101057.91;5094426;28;20519;-58
2023/04/25 03:27:19;;;;;;;40.20;12.75;;;;;;;2.71;100.00;101059.28;5094520;28;20035;-58
2023/04/25 03:29:45;;;;;;;40.17;13.73;;;;;;;2.76;100.00;101060.47;5094736;28;20035;-58
2023/04/25 03:32:10;;;;;;;49.13;13.60;;;;;;;2.85;100.00;101060.19;5094413;28;20024;-58
2023/04/25 03:34:35;;;;;;;39.17;12.38;;;;;;;2.89;100.00;101055.38;5094606;28;20028;-58
2023/04/25 03:37:01;;;;;;;47.22;13.45;;;;;;;2.94;100.00;101064.19;5094687;28;20023;-57
2023/04/25 03:39:26;;;;;;;44.58;13.90;;;;;;;2.97;100.00;101061.84;5093921;28;20028;-58
2023/04/25 03:41:52;;;;;;;39.75;13.70;;;;;;;3.04;100.00;101064.78;5094557;28;20032;-58
2023/04/25 03:44:17;;;;;;;44.47;14.15;;;;;;;3.07;100.00;101064.97;5094232;28;20536;-58
2023/04/25 03:46:42;;;;;;;39.78;13.15;;;;;;;3.10;100.00;101057.53;5094117;28;20055;-58
2023/04/25 03:49:08;;;;;;;39.03;13.30;;;;;;;3.12;100.00;101055.94;5094494;28;20423;-58
2023/04/25 03:51:33;;;;;;;41.95;13.73;;;;;;;3.19;100.00;101060.66;5093936;28;20361;-58
2023/04/25 03:53:58;;;;;;;45.22;13.57;;;;;;;3.18;100.00;101063.13;5093933;28;20023;-58
2023/04/25 03:56:24;;;;;;;40.85;13.32;;;;;;;3.22;100.00;101062.50;5093910;28;20055;-58
2023/04/25 03:58:49;;;;;;;43.15;12.60;;;;;;;3.23;100.00;101057.50;5094503;28;20028;-58
2023/04/25 04:01:14;;;;;;;46.40;14.13;;;;;;;3.23;100.00;101064.28;5093870;28;20074;-58
2023/04/25 04:03:40;;;;;;;31.20;11.93;;;;;;;3.28;100.00;101061.22;5093535;28;20036;-58
2023/04/25 04:06:06;;;;;;;40.53;12.80;;;;;;;3.28;100.00;101068.88;5094270;28;20049;-58
2023/04/25 04:08:32;;;;;;;52.92;12.75;;;;;;;3.27;100.00;101074.75;5093594;28;20016;-58
2023/04/25 04:10:58;;;;;;;39.30;11.60;;;;;;;3.29;100.00;101080.81;5093782;28;20042;-58
2023/04/25 04:13:25;;;;;;;39.95;12.63;;;;;;;3.28;100.00;101086.69;5093327;28;20028;-58
2023/04/25 04:15:51;;;;;;;37.47;12.90;;;;;;;3.34;100.00;101090.41;5093867;28;20024;-58
2023/04/25 04:18:16;;;;;;;41.70;11.80;;;;;;;3.34;100.00;101091.28;5093446;28;20016;-58
2023/04/25 04:20:41;;;;;;;36.67;12.88;;;;;;;3.36;100.00;101088.84;5093401;28;20480;-58
2023/04/25 04:23:07;;;;;;;35.75;13.38;;;;;;;3.38;100.00;101088.16;5093890;28;20085;-58
2023/04/25 04:25:32;;;;;;;38.88;13.15;;;;;;;3.38;100.00;101088.16;5093215;28;20382;-58
2023/04/25 04:27:58;;;;;;;42.55;12.77;;;;;;;3.38;100.00;101093.25;5093328;28;20027;-58
2023/04/25 04:30:25;;;;;;;32.72;12.65;;;;;;;3.42;100.00;101089.22;5093492;28;20057;-58
2023/04/25 04:32:51;;;;;;;34.33;12.43;;;;;;;3.36;100.00;101094.81;5092611;28;20016;-58
2023/04/25 04:35:16;;;;;;;36.63;12.80;;;;;;;3.36;100.00;101093.97;5092618;28;20384;-58
2023/04/25 04:37:43;;;;;;;42.70;13.18;;;;;;;3.34;100.00;101101.47;5093657;28;20467;-58
2023/04/25 04:40:09;;;;;;;33.13;12.05;;;;;;;3.28;100.00;101101.97;5093196;28;20036;-58
2023/04/25 04:42:36;;;;;;;39.33;13.20;;;;;;;3.26;100.00;101102.66;5092854;28;20047;-58
2023/04/25 04:45:01;;;;;;;41.67;13.55;;;;;;;3.23;100.00;101102.50;5093611;28;20012;-58
2023/04/25 04:47:30;;;;;;;31.00;11.82;;;;;;;3.24;100.00;101110.22;5093094;28;20361;-58
2023/04/25 04:49:55;;;;;;;34.63;12.27;;;;;;;3.24;100.00;101110.22;5092701;28;20024;-58
2023/04/25 04:52:21;;;;;;;39.85;13.25;;;;;;;3.28;100.00;101103.66;5093044;28;20031;-58
2023/04/25 04:54:46;;;;;;;39.92;13.32;;;;;;;3.29;100.00;101108.84;5093011;28;20050;-58
2023/04/25 04:57:11;;;;;;;38.92;14.20;;;;;;;3.36;100.00;101114.34;5092840;28;20023;-58
2023/04/25 04:59:36;;;;;;;33.38;12.57;;;;;;;3.42;100.00;101122.34;5092847;28;20020;-58
2023/04/25 05:02:02;;;;;;;42.95;13.13;;;;;;;3.51;100.00;101120.41;5093347;28;20057;-58
2023/04/25 05:04:27;;;;;;;30.92;12.77;;;;;;;3.58;100.00;101125.06;5092032;28;20495;-58
2023/04/25 05:06:52;;;;;;;39.40;12.88;;;;;;;3.61;100.00;101125.25;5092882;28;20028;-57
2023/04/25 05:09:19;;;;;;;38.05;12.23;;;;;;;3.69;100.00;101128.28;5092813;28;20085;-58
2023/04/25 05:11:44;;;;;;;36.55;11.70;;;;;;;3.74;100.00;101138.75;5092372;28;20039;-57
2023/04/25 05:14:09;;;;;;;34.45;10.55;;;;;;;3.79;100.00;101143.34;5092757;28;20028;-57
2023/04/25 05:16:35;;;;;;;37.17;11.23;;;;;;;3.87;100.00;101148.06;5092823;28;20028;-58
2023/04/25 05:19:00;;;;;;;34.00;11.05;;;;;;;3.90;100.00;101141.47;5092898;28;20028;-58
2023/04/25 05:21:27;;;;;;;27.50;9.90;;;;;;;3.96;100.00;101146.06;5092462;28;20036;-58
2023/04/25 05:23:52;;;;;;;32.42;9.90;;;;;;;3.97;100.00;101152.94;5092315;28;20024;-58
2023/04/25 05:26:17;;;;;;;33.53;9.63;;;;;;;3.99;100.00;101160.66;5092814;28;20028;-58
2023/04/25 05:28:43;;;;;;;39.40;10.55;;;;;;;4.03;100.00;101160.97;5092573;28;20035;-58
2023/04/25 05:31:11;;;;;;;36.25;10.77;;;;;;;4.07;100.00;101167.13;5092157;28;20575;-58
2023/04/25 05:33:36;;;;;;;26.42;9.88;;;;;;;4.12;100.00;101173.41;5092608;28;20048;-58
2023/04/25 05:36:02;;;;;;;34.90;10.65;;;;;;;4.21;100.00;101173.94;5092579;28;20062;-58
2023/04/25 05:38:27;;;;;;;34.53;10.70;;;;;;;4.27;100.00;101170.88;5091971;28;20159;-58
2023/04/25 05:40:52;;;;;;;29.55;9.48;;;;;;;4.31;100.00;101167.72;5092955;28;20125;-58
2023/04/25 05:43:17;;;;;;;32.55;10.27;;;;;;;4.44;100.00;101175.34;5092656;28;20024;-58
2023/04/25 05:45:43;;;;;;;32.15;10.23;;;;;;;4.48;100.00;101168.75;5096457;28;20016;-58
2023/04/25 05:48:08;;;;;;;22.67;8.98;;;;;;;4.59;100.00;101170.25;5096934;28;20036;-58
2023/04/25 05:50:33;;;;;;;30.02;10.73;;;;;;;4.73;100.00;101180.41;5096234;28;20532;-58
2023/04/25 05:52:59;;;;;;;31.60;9.73;;;;;;;4.80;100.00;101186.75;5096175;28;20020;-58
2023/04/25 05:55:24;;;;;;;35.85;9.07;;;;;;;4.82;100.00;101191.16;5096322;28;20023;-58
2023/04/25 05:57:49;;;;;;;28.45;9.00;;;;;;;4.88;100.00;101188.97;5096341;28;20059;-58
2023/04/25 06:00:15;;;;;;;28.73;8.45;;;;;;;4.93;100.00;101195.22;5096163;28;20024;-58
2023/04/25 06:02:41;;;;;;;27.85;8.38;;;;;;;5.09;100.00;101201.22;5096381;28;20019;-58
2023/04/25 06:05:07;;;;;;;27.80;9.18;;;;;;;5.18;100.00;101206.84;5096349;28;20036;-58
2023/04/25 06:07:32;;;;;;;31.05;9.30;;;;;;;5.26;100.00;101205.59;5095520;28;20115;-58
2023/04/25 06:09:58;;;;;;;28.63;8.13;;;;;;;5.25;100.00;101214.06;5096060;28;20042;-58
2023/04/25 06:12:23;;;;;;;22.98;8.65;;;;;;;5.32;100.00;101214.41;5096163;28;20118;-58
2023/04/25 06:14:48;;;;;;;29.88;8.57;;;;;;;5.23;100.00;101207.97;5095722;28;20051;-58
2023/04/25 06:17:14;;;;;;;23.25;7.85;;;;;;;5.12;100.00;101206.47;5096082;28;20380;-58
2023/04/25 06:19:39;;;;;;;27.20;7.15;;;;;;;5.04;100.00;101202.63;5095961;28;20020;-58
2023/04/25 06:22:05;;;;;;;24.05;7.57;;;;;;;5.02;100.00;101211.84;5095595;28;20016;-58
2023/04/25 06:24:30;;;;;;;19.83;6.60;;;;;;;4.94;100.00;101217.41;5095503;28;20024;-58
2023/04/25 06:26:56;;;;;;;24.65;7.07;;;;;;;4.95;100.00;101211.50;5095875;28;20080;-58
2023/04/25 06:29:22;;;;;;;25.42;7.35;;;;;;;4.93;100.00;101213.09;5095477;28;20052;-58
2023/04/25 06:31:47;;;;;;;23.83;7.32;;;;;;;4.96;100.00;101217.50;5095751;28;20031;-57
2023/04/25 06:34:12;;;;;;;22.40;6.88;;;;;;;4.98;100.00;101218.44;5095405;28;20016;-58
2023/04/25 06:36:37;;;;;;;25.58;6.57;;;;;;;5.02;100.00;101220.41;5095619;28;20498;-58
2023/04/25 06:39:03;;;;;;;21.45;6.22;;;;;;;5.10;100.00;101224.28;5095617;28;20074;-58
2023/04/25 06:41:28;;;;;;;18.15;5.78;;;;;;;5.16;100.00;101228.84;5094823;28;20479;-58
2023/04/25 06:43:53;;;;;;;24.25;5.82;;;;;;;5.15;100.00;101228.78;5095911;28;20028;-58
2023/04/25 06:46:19;;;;;;;21.80;5.90;;;;;;;5.18;100.00;101232.38;5095260;28;20063;-58
2023/04/25 06:48:44;;;;;;;16.73;5.75;;;;;;;5.25;100.00;101237.06;5095116;28;20471;-58
2023/04/25 06:51:10;;;;;;;13.07;4.05;;;;;;;5.31;100.00;101243.31;5095507;28;20387;-58
2023/04/25 06:53:35;;;;;;;17.02;4.72;;;;;;;5.38;100.00;101240.31;5094998;28;20024;-58
2023/04/25 06:56:00;;;;;;;22.38;5.25;;;;;;;5.45;100.00;101242.44;5094129;28;20073;-58
2023/04/25 06:58:26;;;;;;;22.92;4.93;;;;;;;5.55;100.00;101254.03;5095293;28;20051;-58
2023/04/25 07:00:51;;;;;;;19.65;4.45;;;;;;;5.57;98.96;101243.09;5095234;28;20020;-58
2023/04/25 07:03:16;;;;;;;16.77;4.50;;;;;;;5.59;98.90;101249.22;5094276;28;20035;-58
2023/04/25 07:05:42;;;;;;;17.05;4.78;;;;;;;5.78;100.00;101242.53;5095183;28;20034;-58
2023/04/25 07:08:07;;;;;;;17.00;5.28;;;;;;;5.88;100.00;101247.38;5095087;28;20020;-58
2023/04/25 07:10:32;;;;;;;13.95;4.18;;;;;;;5.97;100.00;101248.69;5094291;28;20050;-58
2023/04/25 07:12:58;;;;;;;16.13;4.63;;;;;;;6.04;100.00;101246.59;5095154;28;20490;-58
2023/04/25 07:15:23;;;;;;;18.95;4.80;;;;;;;6.19;100.00;101248.22;5094841;28;20038;-58
2023/04/25 07:17:48;;;;;;;16.52;4.13;;;;;;;6.20;97.82;101248.28;5094682;28;20060;-59
2023/04/25 07:20:14;;;;;;;19.35;4.07;;;;;;;6.27;93.55;101257.16;5094886;28;20020;-58
2023/04/25 07:22:39;;;;;;;16.65;3.92;;;;;;;6.40;94.08;101256.13;5094691;28;20028;-58
2023/04/25 07:25:05;;;;;;;20.15;4.00;;;;;;;6.60;100.00;101264.88;5094363;28;20108;-58
2023/04/25 07:27:31;;;;;;;19.15;3.80;;;;;;;6.54;93.87;101265.44;5094279;28;20103;-58
2023/04/25 07:29:57;;;;;;;16.90;3.90;;;;;;;6.63;93.56;101264.16;5094903;28;20099;-58
2023/04/25 07:32:22;;;;;;;11.38;3.92;;;;;;;6.56;89.08;101279.19;5094046;28;20537;-59
2023/04/25 07:34:48;;;;;;;14.32;3.70;;;;;;;6.48;84.75;101275.38;5094530;28;20379;-59
2023/04/25 07:37:13;;;;;;;13.93;3.40;;;;;;;6.54;87.86;101283.34;5094540;28;20028;-58
2023/04/25 07:39:39;;;;;;;12.38;3.42;;;;;;;6.55;85.87;101290.25;5093895;28;20023;-59
2023/04/25 07:42:07;;;;;;;12.48;3.65;;;;;;;6.64;90.06;101281.31;5094593;28;20024;-59
2023/04/25 07:44:38;;;;;;;20.08;4.32;;;;;;;6.78;90.56;101295.72;5093846;28;20032;-59
2023/04/25 07:47:04;;;;;;;14.50;3.92;;;;;;;6.99;92.22;101295.06;5094787;28;20069;-58
2023/04/25 07:49:29;;;;;;;13.30;3.50;;;;;;;6.92;84.06;101294.75;5093910;28;20070;-59
2023/04/25 07:51:54;;;;;;;14.55;3.85;;;;;;;7.17;86.05;101301.13;5093772;28;20058;-59
2023/04/25 07:54:20;;;;;;;18.40;4.03;;;;;;;7.39;85.80;101302.19;5094038;28;20055;-58
2023/04/25 07:56:45;;;;;;;14.23;4.10;;;;;;;7.55;84.29;101294.47;5094241;28;20472;-59
2023/04/25 07:59:10;;;;;;;14.07;3.75;;;;;;;7.87;88.42;101300.25;5093795;28;20103;-59
2023/04/25 08:01:36;;;;;;;16.40;3.88;;;;;;;7.82;81.72;101299.16;5093912;28;20107;-58
2023/04/25 08:04:01;;;;;;;14.10;3.55;;;;;;;7.99;85.39;101296.50;5093812;28;20048;-58
2023/04/25 08:06:27;;;;;;;15.45;3.88;;;;;;;8.24;84.35;101309.69;5093109;28;20035;-58
2023/04/25 08:08:52;;;;;;;17.10;3.63;;;;;;;8.37;82.04;101315.41;5093962;28;20084;-59
2023/04/25 08:11:18;;;;;;;18.88;4.20;;;;;;;8.48;80.93;101319.38;5093854;28;20200;-59
2023/04/25 08:13:43;;;;;;;19.23;4.20;;;;;;;8.38;79.33;101327.44;5093569;28;20107;-59
2023/04/25 08:16:09;;;;;;;14.48;4.53;;;;;;;8.52;81.23;101320.38;5093922;28;20020;-58
2023/04/25 08:18:34;;;;;;;15.98;4.05;;;;;;;8.51;80.26;101324.66;5093722;28;20183;-59
2023/04/25 08:20:59;;;;;;;17.80;4.03;;;;;;;8.55;79.34;101326.53;5093273;28;20032;-59
2023/04/25 08:23:24;;;;;;;17.10;3.90;;;;;;;8.56;80.34;101333.44;5093473;28;20031;-59
2023/04/25 08:25:50;;;;;;;13.98;3.47;;;;;;;8.55;81.18;101335.97;5093940;28;20077;-58
2023/04/25 08:28:16;;;;;;;15.60;4.43;;;;;;;8.44;78.72;101335.41;5092960;28;20047;-58
2023/04/25 08:30:41;;;;;;;14.43;3.88;;;;;;;8.51;81.91;101345.19;5093465;28;20387;-58
2023/04/25 08:33:06;;;;;;;15.82;4.03;;;;;;;8.45;78.32;101350.03;5093870;28;20103;-58
2023/04/25 08:35:33;;;;;;;16.13;3.60;;;;;;;8.65;80.46;101347.50;5092708;28;20039;-58
2023/04/25 08:37:58;;;;;;;19.80;4.22;;;;;;;8.83;81.49;101345.78;5093325;28;20073;-58
2023/04/25 08:40:28;;;;;;;15.50;4.18;;;;;;;8.80;77.83;101352.47;5093402;28;20388;-58
2023/04/25 08:42:55;;;;;;;15.32;3.65;;;;;;;8.99;79.93;101349.03;5093245;28;20020;-59
2023/04/25 08:45:21;;;;;;;22.10;5.00;;;;;;;9.07;76.86;101355.38;5093338;28;20035;-58
2023/04/25 08:47:48;;;;;;;18.77;3.30;;;;;;;9.26;75.70;101361.31;5092981;28;20024;-58
2023/04/25 08:50:13;;;;;;;14.40;3.40;;;;;;;9.37;74.29;101360.09;5093380;28;20080;-58
2023/04/25 08:52:48;;;;;;;17.75;3.63;;;;;;;9.46;75.39;101362.19;5092933;28;20470;-58
2023/04/25 08:55:14;;;;;;;17.58;3.22;;;;;;;9.42;72.46;101365.44;5092824;28;20024;-58
2023/04/25 08:57:45;;;;;;;11.70;3.22;;;;;;;9.46;72.28;101373.34;5092930;28;20027;-58
2023/04/25 09:00:12;;;;;;;15.23;3.67;;;;;;;9.66;74.28;101376.78;5093074;28;20053;-58
2023/04/25 09:02:39;;;;;;;19.53;3.10;;;;;;;9.67;76.13;101387.94;5092321;28;20035;-58
2023/04/25 09:05:06;;;;;;;8.27;2.75;;;;;;;9.49;70.65;101396.66;5092893;28;20306;-58
2023/04/25 09:07:32;;;;;;;12.32;3.25;;;;;;;9.60;71.17;101391.94;5092996;28;20032;-58
2023/04/25 09:10:01;;;;;;;11.63;3.10;;;;;;;9.91;75.47;101405.25;5092589;28;20024;-59
2023/04/25 09:12:28;;;;;;;14.52;3.05;;;;;;;9.68;69.82;101405.13;5092600;28;20032;-58
2023/04/25 09:15:14;;;;;;;16.45;2.97;;;;;;;9.59;72.29;101415.06;5093046;28;20031;-58
2023/04/25 09:17:44;;;;;;;15.07;3.28;;;;;;;9.27;70.87;101411.97;5091657;28;20040;-59
2023/04/25 09:20:12;;;;;;;13.85;2.88;;;;;;;9.48;66.84;101423.19;5092512;28;20501;-58
2023/04/25 09:22:37;;;;;;;18.55;2.90;;;;;;;9.68;67.74;101421.47;5092774;28;20165;-58
2023/04/25 09:25:08;;;;;;;13.27;2.83;;;;;;;9.86;70.43;101418.81;5092409;28;20107;-58
2023/04/25 09:27:34;;;;;;;9.30;2.47;;;;;;;10.27;73.56;101417.84;5092329;28;20031;-58
2023/04/25 09:30:00;;;;;;;12.55;2.45;;;;;;;10.84;64.47;101425.22;5092140;28;20036;-58
2023/04/25 09:32:26;;;;;;;14.73;2.75;;;;;;;11.00;63.48;101429.25;5092746;28;20047;-58
2023/04/25 09:34:53;;;;;;;9.43;2.75;;;;;;;10.57;63.63;101432.78;5092934;28;20034;-58
2023/04/25 09:37:29;;;;;;;9.70;2.95;;;;;;;10.50;69.20;101429.97;5092079;28;20121;-58
2023/04/25 09:39:56;;;;;;;11.48;3.38;;;;;;;10.23;69.30;101432.31;5092978;28;20118;-58
2023/04/25 09:42:23;;;;;;;19.55;3.67;;;;;;;9.97;67.82;101429.53;5092178;28;20020;-58
2023/04/25 09:44:52;;;;;;;12.15;3.05;;;;;;;9.56;70.32;101436.38;5092306;28;20035;-58
2023/04/25 09:47:17;;;;;;;11.05;2.80;;;;;;;9.38;75.08;101439.03;5092273;28;20020;-59
2023/04/25 09:49:43;;;;;;;12.65;3.13;;;;;;;9.59;77.75;101440.78;5092776;28;20039;-59
2023/04/25 09:52:14;;;;;;;12.15;3.15;;;;;;;10.13;74.43;101441.34;5092183;28;20051;-58
2023/04/25 09:54:39;;;;;;;9.70;2.85;;;;;;;10.96;73.39;101440.28;5092144;28;20024;-59
2023/04/25 09:57:19;;;;;;;9.25;2.80;;;;;;;11.62;69.79;101432.34;5092860;28;20077;-58
2023/04/25 09:59:53;;;;;;;9.13;3.15;;;;;;;12.37;65.25;101435.72;5092234;28;20085;-58
2023/04/25 10:02:21;;;;;;;9.75;2.72;;;;;;;13.01;57.22;101425.53;5092049;28;20024;-58
2023/04/25 10:04:48;;;;;;;;;;;;;;;13.19;50.75;101432.94;5092987;28;20083;-58
2023/04/25 10:07:14;;;;;;;;;;;;;;;13.57;56.36;101433.16;5092382;28;19912;-58
2023/04/25 10:09:40;;;;;;;7.60;1.77;;;;;;;13.97;47.68;101433.34;5092385;28;20347;-58
2023/04/25 10:12:07;;;;;;;8.65;2.00;;;;;;;14.65;48.64;101434.94;5091962;28;20093;-58
2023/04/25 10:14:33;;;;;;;6.18;1.70;;;;;;;15.30;50.92;101441.50;5092412;28;20074;-58
2023/04/25 10:16:59;;;;;;;8.57;1.85;;;;;;;15.47;43.86;101434.88;5092217;28;20016;-58
2023/04/25 10:19:26;;;;;;;8.07;1.77;;;;;;;15.72;45.64;101445.72;5091518;28;20028;-58
2023/04/25 10:21:56;;;;;;;7.65;1.90;;;;;;;15.59;42.69;101438.56;5092262;28;20482;-58
2023/04/25 10:24:22;;;;;;;8.15;2.00;;;;;;;15.82;41.24;101430.34;5091987;28;20048;-58
2023/04/25 10:26:48;;;;;;;10.80;2.22;;;;;;;16.26;41.67;101431.06;5091951;28;20032;-58
2023/04/25 10:29:21;;;;;;;5.88;1.67;;;;;;;16.00;42.63;101437.56;5092210;28;20055;-58
2023/04/25 10:31:49;;;;;;;7.28;1.90;;;;;;;15.52;37.97;101437.59;5096270;28;20103;-58
2023/04/25 10:34:16;;;;;;;6.47;1.42;;;;;;;15.54;40.75;101427.22;5095284;28;20421;-58
2023/04/25 10:36:42;;;;;;;9.35;1.95;;;;;;;15.66;36.60;101434.34;5095722;28;20024;-58
2023/04/25 10:39:09;;;;;;;8.18;2.35;;;;;;;16.70;38.21;101429.94;5095809;28;20024;-58
2023/04/25 10:41:48;;;;;;;6.82;2.13;;;;;;;17.35;38.29;101442.94;5095164;28;20070;-58
2023/04/25 10:44:13;;;;;;;10.55;1.88;;;;;;;17.24;39.52;101442.81;5095670;28;20095;-58
2023/04/25 10:46:39;;;;;;;9.57;1.88;;;;;;;15.91;37.93;101440.91;5095380;28;20455;-58
2023/04/25 10:49:04;;;;;;;8.38;1.92;;;;;;;14.47;43.47;101457.00;5094907;28;20024;-58
2023/04/25 10:51:35;;;;;;;7.82;1.70;;;;;;;13.07;45.42;101461.94;5095060;28;20030;-58
2023/04/25 10:54:03;;;;;;;13.80;2.22;;;;;;;11.80;46.44;101457.94;5095648;28;20028;-58
2023/04/25 10:56:32;;;;;;;7.18;1.75;;;;;;;10.92;55.53;101471.94;5094803;28;20026;-58
2023/04/25 10:59:11;;;;;;;11.30;2.25;;;;;;;9.66;59.67;101478.84;5095715;28;20028;-59
2023/04/25 11:01:41;;;;;;;10.45;2.08;;;;;;;8.66;74.26;101482.91;5094696;28;20432;-59
2023/04/25 11:04:19;;;;;;;10.02;2.40;;;;;;;8.28;73.96;101485.34;5095156;28;20605;-59
2023/04/25 11:06:50;;;;;;;8.77;2.10;;;;;;;8.06;80.74;101479.16;5095508;28;20054;-59
2023/04/25 11:09:15;;;;;;;12.05;2.63;;;;;;;7.82;77.99;101478.78;5094472;28;20038;-59
2023/04/25 11:11:41;;;;;;;13.75;2.72;;;;;;;7.69;80.28;101478.97;5095089;28;20012;-59